createdAt,value
2018-12-06T00:00:50.640Z,99751.88
2018-12-06T00:03:19.747Z,99751.00
2018-12-06T00:05:48.732Z,99761.88
2018-12-06T00:08:19.087Z,99757.45
2018-12-06T00:10:48.163Z,99773.43
2018-12-06T00:13:17.143Z,99764.87
2018-12-06T00:15:46.258Z,99778.49
2018-12-06T00:18:15.310Z,99783.43
2018-12-06T00:20:44.250Z,99778.39
2018-12-06T00:23:13.673Z,99776.03
2018-12-06T00:25:43.253Z,99777.82
2018-12-06T00:28:12.195Z,99773.48
2018-12-06T00:30:42.539Z,99781.20
2018-12-06T00:33:11.554Z,99779.31
2018-12-06T00:35:40.540Z,99785.98
2018-12-06T00:38:10.192Z,99788.16
2018-12-06T00:40:39.131Z,99791.44
2018-12-06T00:43:09.104Z,99798.70
2018-12-06T00:45:38.111Z,99794.77
2018-12-06T00:48:07.064Z,99792.19
2018-12-06T00:50:36.046Z,99793.80
2018-12-06T00:53:05.068Z,99794.10
2018-12-06T00:55:34.083Z,99794.34
2018-12-06T00:58:03.090Z,99785.91
2018-12-06T01:00:32.500Z,99792.19
2018-12-06T01:03:01.470Z,99800.30
2018-12-06T01:05:30.916Z,99794.73
2018-12-06T01:08:00.242Z,99793.63
2018-12-06T01:10:29.188Z,99795.80
2018-12-06T01:12:58.258Z,99787.59
2018-12-06T01:15:27.958Z,99795.77
2018-12-06T01:17:56.981Z,99789.50
2018-12-06T01:20:25.983Z,99795.08
2018-12-06T01:22:54.998Z,99787.09
2018-12-06T01:25:23.937Z,99787.25
2018-12-06T01:27:53.946Z,99787.35
2018-12-06T01:30:22.975Z,99788.45
2018-12-06T01:32:51.909Z,99783.57
2018-12-06T01:35:20.908Z,99780.20
2018-12-06T01:37:49.889Z,99748.84
2018-12-06T01:40:18.919Z,99779.09
2018-12-06T01:42:47.878Z,99782.02
2018-12-06T01:45:17.182Z,99778.03
2018-12-06T01:47:46.131Z,99781.89
2018-12-06T01:50:15.055Z,99773.73
2018-12-06T01:52:44.047Z,99785.42
2018-12-06T01:55:12.991Z,99783.80
2018-12-06T01:57:41.917Z,99782.27
2018-12-06T02:00:11.228Z,99779.13
2018-12-06T02:02:40.226Z,99778.09
2018-12-06T02:05:09.256Z,99778.63
2018-12-06T02:07:38.312Z,99778.78
2018-12-06T02:10:07.479Z,99778.87
2018-12-06T02:12:37.603Z,99774.19
2018-12-06T02:15:06.723Z,99776.45
2018-12-06T02:17:36.603Z,99783.08
2018-12-06T02:20:06.539Z,99787.37
2018-12-06T02:22:36.783Z,99768.23
2018-12-06T02:25:05.869Z,99775.66
2018-12-06T02:27:34.814Z,99780.06
2018-12-06T02:30:04.192Z,99778.31
2018-12-06T02:32:33.144Z,99778.55
2018-12-06T02:35:02.140Z,99775.32
2018-12-06T02:37:31.727Z,99772.02
2018-12-06T02:40:00.711Z,99769.41
2018-12-06T02:42:29.676Z,99772.26
2018-12-06T02:44:58.735Z,99771.76
2018-12-06T02:47:27.666Z,99773.47
2018-12-06T02:49:56.627Z,99777.57
2018-12-06T02:52:25.867Z,99777.20
2018-12-06T02:54:55.058Z,99764.80
2018-12-06T02:57:24.072Z,99779.56
2018-12-06T02:59:53.317Z,99778.16
2018-12-06T03:02:23.286Z,99770.18
2018-12-06T03:04:52.259Z,99775.73
2018-12-06T03:07:21.302Z,99782.63
2018-12-06T03:09:50.238Z,99786.08
2018-12-06T03:12:19.207Z,99789.02
2018-12-06T03:14:48.316Z,99789.05
2018-12-06T03:17:17.325Z,99792.93
2018-12-06T03:19:47.809Z,99781.78
2018-12-06T03:22:16.396Z,99780.66
2018-12-06T03:24:45.341Z,99784.19
2018-12-06T03:27:14.321Z,99784.23
2018-12-06T03:29:43.370Z,99779.55
2018-12-06T03:32:12.414Z,99781.17
2018-12-06T03:34:41.467Z,99782.16
2018-12-06T03:37:10.729Z,99780.77
2018-12-06T03:39:39.708Z,99780.61
2018-12-06T03:42:08.711Z,99786.66
2018-12-06T03:44:37.743Z,99762.86
2018-12-06T03:47:06.710Z,99792.17
2018-12-06T03:49:35.677Z,99790.14
2018-12-06T03:52:05.328Z,99793.37
2018-12-06T03:54:34.268Z,99793.27
2018-12-06T03:57:03.233Z,99795.53
2018-12-06T03:59:32.960Z,99794.19
2018-12-06T04:02:01.957Z,99795.13
2018-12-06T04:04:30.928Z,99795.59
2018-12-06T04:06:59.934Z,99804.42
2018-12-06T04:09:28.883Z,99804.97
2018-12-06T04:11:57.848Z,99806.81
2018-12-06T04:14:26.867Z,99808.30
2018-12-06T04:16:55.871Z,99798.62
2018-12-06T04:19:24.848Z,99800.09
2018-12-06T04:21:54.118Z,99802.97
2018-12-06T04:24:23.189Z,99793.91
2018-12-06T04:26:52.198Z,99803.73
2018-12-06T04:29:21.482Z,99800.50
2018-12-06T04:31:50.509Z,99805.63
2018-12-06T04:34:19.576Z,99810.70
2018-12-06T04:36:48.615Z,99813.53
2018-12-06T04:39:17.605Z,99814.83
2018-12-06T04:41:47.106Z,99781.58
2018-12-06T04:44:16.432Z,99815.11
2018-12-06T04:46:45.587Z,99825.05
2018-12-06T04:49:14.539Z,99830.12
2018-12-06T04:51:43.603Z,99836.09
2018-12-06T04:54:12.645Z,99839.33
2018-12-06T04:56:42.030Z,99834.84
2018-12-06T04:59:11.610Z,99836.85
2018-12-06T05:01:40.707Z,99834.34
2018-12-06T05:04:09.904Z,99843.27
2018-12-06T05:06:39.555Z,99839.83
2018-12-06T05:09:08.959Z,99836.81
2018-12-06T05:11:38.009Z,99837.10
2018-12-06T05:14:07.254Z,99841.19
2018-12-06T05:16:36.475Z,99819.93
2018-12-06T05:19:05.540Z,99841.53
2018-12-06T05:21:34.766Z,99849.30
2018-12-06T05:24:03.856Z,99844.09
2018-12-06T05:26:33.298Z,99849.14
2018-12-06T05:29:02.438Z,99854.48
2018-12-06T05:31:31.501Z,99854.14
2018-12-06T05:34:00.607Z,99859.84
2018-12-06T05:36:29.657Z,99857.90
2018-12-06T05:38:58.770Z,99860.33
2018-12-06T05:41:27.806Z,99866.85
2018-12-06T05:43:57.033Z,99869.89
2018-12-06T05:46:26.654Z,99866.97
2018-12-06T05:48:55.799Z,99871.08
2018-12-06T05:51:24.901Z,99868.30
2018-12-06T05:53:54.011Z,99860.92
2018-12-06T05:56:23.035Z,99869.39
2018-12-06T05:58:52.224Z,99861.80
2018-12-06T06:01:21.351Z,99871.86
2018-12-06T06:03:50.708Z,99878.28
2018-12-06T06:06:20.166Z,99878.11
2018-12-06T06:08:49.242Z,99874.77
2018-12-06T06:11:18.240Z,99880.22
2018-12-06T06:13:47.367Z,99876.23
2018-12-06T06:16:16.525Z,99878.06
2018-12-06T06:18:45.612Z,99883.72
2018-12-06T06:21:14.996Z,99893.08
2018-12-06T06:23:44.148Z,99883.59
2018-12-06T06:26:13.300Z,99885.33
2018-12-06T06:28:42.406Z,99888.22
2018-12-06T06:31:12.488Z,99888.91
2018-12-06T06:33:41.547Z,99889.91
2018-12-06T06:36:10.760Z,99897.18
2018-12-06T06:38:39.806Z,99896.30
2018-12-06T06:41:08.869Z,99901.05
2018-12-06T06:43:38.003Z,99895.73
2018-12-06T06:46:07.046Z,99908.06
2018-12-06T06:48:36.122Z,99903.83
2018-12-06T06:51:05.180Z,99911.91
2018-12-06T06:53:34.152Z,99902.59
2018-12-06T06:56:03.187Z,99903.12
2018-12-06T06:58:32.601Z,99907.23
2018-12-06T07:01:01.673Z,99909.84
2018-12-06T07:03:30.739Z,99902.34
2018-12-06T07:05:59.856Z,99905.02
2018-12-06T07:08:28.958Z,99901.47
2018-12-06T07:10:58.003Z,99902.50
2018-12-06T07:13:27.121Z,99895.95
2018-12-06T07:15:56.227Z,99900.31
2018-12-06T07:18:25.288Z,99893.68
2018-12-06T07:20:54.432Z,99890.62
2018-12-06T07:23:23.388Z,99886.02
2018-12-06T07:25:52.546Z,99891.16
2018-12-06T07:28:21.622Z,99880.27
2018-12-06T07:30:50.817Z,99884.38
2018-12-06T07:33:19.914Z,99898.78
2018-12-06T07:35:49.234Z,99888.75
2018-12-06T07:38:18.297Z,99894.20
2018-12-06T07:40:47.483Z,99892.63
2018-12-06T07:43:16.649Z,99896.66
2018-12-06T07:45:45.775Z,99894.80
2018-12-06T07:48:14.901Z,99905.96
2018-12-06T07:50:44.051Z,99903.49
2018-12-06T07:53:13.050Z,99906.45
2018-12-06T07:55:42.128Z,99907.69
2018-12-06T07:58:11.131Z,99907.55
2018-12-06T08:00:40.187Z,99902.31
2018-12-06T08:03:09.334Z,99906.62
2018-12-06T08:05:38.458Z,99907.28
2018-12-06T08:08:08.269Z,99910.02
2018-12-06T08:10:37.323Z,99898.95
2018-12-06T08:13:06.837Z,99907.31
2018-12-06T08:15:35.925Z,99903.30
2018-12-06T08:18:05.070Z,99905.16
2018-12-06T08:20:34.159Z,99910.88
2018-12-06T08:23:03.240Z,99912.91
2018-12-06T08:25:32.576Z,99909.41
2018-12-06T08:28:01.676Z,99920.30
2018-12-06T08:30:30.804Z,99910.80
2018-12-06T08:32:59.883Z,99909.75
2018-12-06T08:35:28.975Z,99907.90
2018-12-06T08:37:58.029Z,99910.87
2018-12-06T08:40:27.025Z,99913.91
2018-12-06T08:42:56.167Z,99916.44
2018-12-06T08:45:25.527Z,99914.05
2018-12-06T08:47:54.543Z,99915.14
2018-12-06T09:39:32.465Z,99893.96
2018-12-06T09:45:07.319Z,99885.22
2018-12-06T09:47:38.241Z,99876.95
2018-12-06T09:50:07.864Z,99879.70
2018-12-06T09:52:39.219Z,99873.05
2018-12-06T09:55:14.295Z,99867.91
2018-12-06T09:57:43.336Z,99870.79
2018-12-06T10:00:15.494Z,99864.26
2018-12-06T10:02:45.042Z,99863.23
2018-12-06T10:05:13.994Z,99863.23
2018-12-06T10:07:42.971Z,99852.75
2018-12-06T10:10:13.058Z,99851.27
2018-12-06T10:12:48.619Z,99852.81
2018-12-06T10:15:21.144Z,99843.97
2018-12-06T10:17:50.468Z,99845.10
2018-12-06T10:20:25.253Z,99843.13
2018-12-06T10:22:57.549Z,99836.36
2018-12-06T10:25:27.257Z,99832.57
2018-12-06T10:27:57.310Z,99829.11
2018-12-06T10:30:26.689Z,99820.50
2018-12-06T10:32:56.513Z,99823.80
2018-12-06T10:35:26.401Z,99825.67
2018-12-06T10:37:56.417Z,99814.05
2018-12-06T10:40:25.609Z,99817.41
2018-12-06T10:42:55.101Z,99808.40
2018-12-06T10:45:24.244Z,99799.82
2018-12-06T10:47:53.376Z,99792.80
2018-12-06T10:50:22.444Z,99794.98
2018-12-06T10:52:51.445Z,99794.14
2018-12-06T10:55:20.483Z,99792.24
2018-12-06T10:57:49.685Z,99785.21
2018-12-06T11:01:24.312Z,99792.47
2018-12-06T11:03:58.350Z,99783.45
2018-12-06T11:06:29.136Z,99787.47
2018-12-06T11:08:58.130Z,99783.69
2018-12-06T11:11:27.164Z,99788.69
2018-12-06T11:13:56.455Z,99781.70
2018-12-06T11:16:25.445Z,99782.73
2018-12-06T11:18:54.615Z,99780.58
2018-12-06T11:21:25.595Z,99780.50
2018-12-06T11:23:56.464Z,99779.81
2018-12-06T11:26:25.708Z,99775.50
2018-12-06T11:28:54.741Z,99773.98
2018-12-06T11:31:23.866Z,99781.08
2018-12-06T11:33:52.884Z,99774.88
2018-12-06T11:36:21.994Z,99775.03
2018-12-06T11:38:51.134Z,99769.72
2018-12-06T11:41:20.231Z,99778.45
2018-12-06T11:43:49.479Z,99778.07
2018-12-06T11:46:18.624Z,99768.22
2018-12-06T11:48:47.791Z,99763.47
2018-12-06T11:51:17.477Z,99773.44
2018-12-06T11:53:47.243Z,99759.13
2018-12-06T11:56:16.520Z,99757.45
2018-12-06T11:58:45.715Z,99760.33
2018-12-06T12:01:15.106Z,99758.08
2018-12-06T12:03:44.245Z,99748.89
2018-12-06T12:06:13.451Z,99749.85
2018-12-06T12:08:42.902Z,99753.66
2018-12-06T12:11:12.094Z,99748.50
2018-12-06T12:13:41.285Z,99753.47
2018-12-06T12:16:10.410Z,99754.28
2018-12-06T12:18:39.689Z,99742.37
2018-12-06T12:21:08.901Z,99756.32
2018-12-06T12:23:38.169Z,99747.16
2018-12-06T12:26:07.499Z,99756.19
2018-12-06T12:28:36.688Z,99752.08
2018-12-06T12:31:06.169Z,99749.92
2018-12-06T12:33:35.286Z,99755.61
2018-12-06T12:36:04.487Z,99748.59
2018-12-06T12:38:33.716Z,99746.92
2018-12-06T12:41:02.903Z,99745.03
2018-12-06T12:43:32.028Z,99751.03
2018-12-06T12:46:01.080Z,99746.27
2018-12-06T12:48:30.099Z,99749.05
2018-12-06T12:50:59.164Z,99741.86
2018-12-06T12:53:28.273Z,99743.27
2018-12-06T12:55:57.355Z,99742.20
2018-12-06T12:58:26.366Z,99737.71
2018-12-06T13:00:55.466Z,99743.84
2018-12-06T13:03:24.492Z,99743.18
2018-12-06T13:05:53.533Z,99739.83
2018-12-06T13:08:22.864Z,99742.22
2018-12-06T13:10:51.925Z,99736.84
2018-12-06T13:13:20.979Z,99733.94
2018-12-06T13:15:49.988Z,99729.39
2018-12-06T13:18:19.203Z,99724.45
2018-12-06T13:20:48.265Z,99735.23
2018-12-06T13:23:17.508Z,99737.06
2018-12-06T13:25:46.505Z,99731.51
2018-12-06T13:28:15.527Z,99729.55
2018-12-06T13:30:44.594Z,99732.89
2018-12-06T13:33:13.814Z,99739.79
2018-12-06T13:35:42.932Z,99738.05
2018-12-06T13:38:12.026Z,99738.72
2018-12-06T13:40:41.092Z,99734.47
2018-12-06T13:43:10.172Z,99738.45
2018-12-06T13:45:39.246Z,99737.41
2018-12-06T13:48:08.382Z,99735.96
2018-12-06T13:50:37.495Z,99733.61
2018-12-06T13:53:06.613Z,99729.79
2018-12-06T13:55:35.751Z,99734.30
2018-12-06T13:58:04.908Z,99729.13
2018-12-06T14:00:34.002Z,99733.33
2018-12-06T14:03:03.055Z,99740.97
2018-12-06T14:05:32.250Z,99729.79
2018-12-06T14:08:01.343Z,99725.23
2018-12-06T14:10:30.418Z,99734.28
2018-12-06T14:12:59.515Z,99734.14
2018-12-06T14:15:28.531Z,99732.86
2018-12-06T14:17:57.556Z,99732.30
2018-12-06T14:20:26.808Z,99729.05
2018-12-06T14:22:56.162Z,99736.30
2018-12-06T14:25:25.236Z,99728.97
2018-12-06T14:27:54.447Z,99732.13
2018-12-06T14:30:24.188Z,99731.28
2018-12-06T14:32:53.252Z,99724.28
2018-12-06T14:35:22.506Z,99725.91
2018-12-06T14:37:51.585Z,99724.88
2018-12-06T14:40:20.799Z,99724.31
2018-12-06T14:42:50.175Z,99727.73
2018-12-06T14:45:19.472Z,99729.44
2018-12-06T14:47:48.479Z,99724.08
2018-12-06T14:50:22.656Z,99720.31
2018-12-06T14:52:51.781Z,99732.27
2018-12-06T14:55:20.951Z,99734.87
2018-12-06T14:57:50.066Z,99741.72
2018-12-06T15:00:19.230Z,99740.11
2018-12-06T15:02:48.191Z,99740.73
2018-12-06T15:05:17.560Z,99748.81
2018-12-06T15:07:46.619Z,99743.98
2018-12-06T15:10:15.769Z,99747.82
2018-12-06T15:12:44.986Z,99746.30
2018-12-06T15:15:14.234Z,99754.06
2018-12-06T15:17:43.416Z,99748.26
2018-12-06T15:20:12.719Z,99749.28
2018-12-06T15:22:41.801Z,99756.95
2018-12-06T15:25:11.027Z,99750.58
2018-12-06T15:27:40.391Z,99756.95
2018-12-06T15:30:10.924Z,99755.88
2018-12-06T15:32:39.932Z,99756.47
2018-12-06T15:35:09.147Z,99764.31
2018-12-06T15:37:38.217Z,99772.46
2018-12-06T15:40:07.668Z,99771.47
2018-12-06T15:42:36.778Z,99767.24
2018-12-06T15:45:06.347Z,99773.53
2018-12-06T15:47:35.459Z,99779.00
2018-12-06T15:50:04.872Z,99775.86
2018-12-06T15:52:34.140Z,99777.19
2018-12-06T15:55:03.216Z,99779.61
2018-12-06T15:57:32.443Z,99783.83
2018-12-06T16:00:01.517Z,99788.18
2018-12-06T16:02:30.583Z,99782.85
2018-12-06T16:04:59.648Z,99783.34
2018-12-06T16:07:28.742Z,99778.73
2018-12-06T16:09:57.763Z,99783.83
2018-12-06T16:12:27.024Z,99782.02
2018-12-06T16:14:56.144Z,99784.20
2018-12-06T16:17:25.154Z,99785.04
2018-12-06T16:19:54.319Z,99789.99
2018-12-06T16:22:23.395Z,99786.02
2018-12-06T16:24:52.551Z,99794.96
2018-12-06T16:27:21.700Z,99799.91
2018-12-06T16:29:51.613Z,99796.50
2018-12-06T16:32:20.200Z,99807.57
2018-12-06T16:34:49.572Z,99805.16
2018-12-06T16:37:18.788Z,99809.92
2018-12-06T16:39:47.941Z,99803.61
2018-12-06T16:42:17.355Z,99808.26
2018-12-06T16:44:46.581Z,99808.62
2018-12-06T16:47:15.918Z,99807.55
2018-12-06T16:49:45.055Z,99809.34
2018-12-06T16:52:14.272Z,99809.13
2018-12-06T16:54:43.440Z,99808.61
2018-12-06T16:57:13.157Z,99808.38
2018-12-06T16:59:42.251Z,99813.93
2018-12-06T17:02:11.437Z,99819.14
2018-12-06T17:04:40.649Z,99821.20
2018-12-06T17:07:09.748Z,99823.50
2018-12-06T17:09:38.968Z,99821.33
2018-12-06T17:12:08.157Z,99827.02
2018-12-06T17:14:37.263Z,99831.61
2018-12-06T17:17:06.443Z,99837.41
2018-12-06T17:19:35.563Z,99843.30
2018-12-06T17:22:04.824Z,99845.55
2018-12-06T17:24:34.025Z,99851.47
2018-12-06T17:27:03.127Z,99853.19
2018-12-06T17:29:32.213Z,99856.85
2018-12-06T17:32:01.376Z,99855.19
2018-12-06T17:34:30.621Z,99871.73
2018-12-06T17:36:59.766Z,99862.48
2018-12-06T17:39:28.870Z,99865.20
2018-12-06T17:41:58.509Z,99868.61
2018-12-06T17:44:27.718Z,99867.08
2018-12-06T17:46:57.008Z,99868.04
2018-12-06T17:49:26.168Z,99877.05
2018-12-06T17:51:55.241Z,99880.59
2018-12-06T17:54:24.478Z,99882.06
2018-12-06T17:56:53.922Z,99878.25
2018-12-06T17:59:22.981Z,99888.27
2018-12-06T18:01:52.137Z,99887.25
2018-12-06T18:04:21.230Z,99895.70
2018-12-06T18:06:50.397Z,99893.07
2018-12-06T18:09:19.506Z,99890.94
2018-12-06T18:11:48.612Z,99897.84
2018-12-06T18:14:17.696Z,99896.15
2018-12-06T18:16:46.704Z,99894.80
2018-12-06T18:19:15.869Z,99897.62
2018-12-06T18:21:45.247Z,99901.73
2018-12-06T18:24:18.552Z,99892.70
2018-12-06T18:26:44.693Z,99897.09
2018-12-06T18:29:14.212Z,99889.83
2018-12-06T18:31:44.205Z,99896.33
2018-12-06T18:34:19.890Z,99895.74
2018-12-06T18:36:49.371Z,99894.82
2018-12-06T18:39:18.927Z,99891.76
2018-12-06T18:41:48.329Z,99896.05
2018-12-06T18:44:17.549Z,99896.47
2018-12-06T18:46:46.678Z,99906.62
2018-12-06T18:49:16.230Z,99906.15
2018-12-06T18:51:45.903Z,99898.95
2018-12-06T18:54:15.558Z,99900.18
2018-12-06T18:56:45.202Z,99903.88
2018-12-06T18:59:15.039Z,99901.55
2018-12-06T19:01:44.402Z,99896.92
2018-12-06T19:04:13.816Z,99902.78
2018-12-06T19:06:45.197Z,99906.41
2018-12-06T19:09:14.437Z,99902.00
2018-12-06T19:11:43.598Z,99897.38
2018-12-06T19:14:12.663Z,99889.19
2018-12-06T19:16:42.119Z,99894.98
2018-12-06T19:19:11.308Z,99903.53
2018-12-06T19:21:40.451Z,99899.26
2018-12-06T19:24:09.681Z,99896.23
2018-12-06T19:26:38.803Z,99893.06
2018-12-06T19:29:07.978Z,99892.40
2018-12-06T19:31:37.118Z,99890.91
2018-12-06T19:34:06.197Z,99892.33
2018-12-06T19:36:35.227Z,99891.58
2018-12-06T19:39:05.105Z,99896.44
2018-12-06T19:41:34.135Z,99896.22
2018-12-06T19:44:03.344Z,99901.87
2018-12-06T19:46:32.460Z,99903.53
2018-12-06T19:49:01.563Z,99906.02
2018-12-06T19:51:30.786Z,99907.86
2018-12-06T19:53:59.926Z,99906.59
2018-12-06T19:56:29.278Z,99919.25
2018-12-06T19:58:58.472Z,99918.90
2018-12-06T20:01:27.753Z,99922.56
2018-12-06T20:03:56.848Z,99921.46
2018-12-06T20:06:25.992Z,99925.10
2018-12-06T20:08:55.124Z,99923.40
2018-12-06T20:11:24.291Z,99924.46
2018-12-06T20:13:53.460Z,99927.34
2018-12-06T20:16:22.702Z,99921.99
2018-12-06T20:18:51.989Z,99925.92
2018-12-06T20:21:23.825Z,99924.42
2018-12-06T20:23:53.994Z,99928.17
2018-12-06T20:26:23.292Z,99930.20
2018-12-06T20:28:52.832Z,99935.86
2018-12-06T20:31:22.566Z,99942.27
2018-12-06T20:33:51.985Z,99945.77
2018-12-06T20:36:21.111Z,99947.30
2018-12-06T20:38:50.233Z,99948.27
2018-12-06T20:41:19.362Z,99948.05
2018-12-06T20:43:48.387Z,99952.78
2018-12-06T20:46:17.484Z,99951.20
2018-12-06T20:48:46.579Z,99952.44
2018-12-06T20:51:15.720Z,99960.04
2018-12-06T20:53:44.815Z,99961.97
2018-12-06T20:56:13.813Z,99962.50
2018-12-06T20:58:42.927Z,99955.27
2018-12-06T21:01:11.977Z,99963.91
2018-12-06T21:03:41.062Z,99967.46
2018-12-06T21:06:10.270Z,99966.12
2018-12-06T21:08:39.288Z,99971.55
2018-12-06T21:11:08.386Z,99965.98
2018-12-06T21:13:38.673Z,99963.78
2018-12-06T21:16:07.889Z,99965.98
2018-12-06T21:18:36.931Z,99966.39
2018-12-06T21:21:06.308Z,99968.14
2018-12-06T21:23:35.497Z,99967.20
2018-12-06T21:26:04.647Z,99966.62
2018-12-06T21:28:34.016Z,99970.31
2018-12-06T21:31:03.055Z,99966.05
2018-12-06T21:33:32.156Z,99968.59
2018-12-06T21:36:01.421Z,99964.11
2018-12-06T21:38:30.704Z,99964.31
2018-12-06T21:41:00.132Z,99958.42
2018-12-06T21:43:29.323Z,99954.86
2018-12-06T21:45:58.551Z,99965.53
2018-12-06T21:48:27.661Z,99955.87
2018-12-06T21:50:57.055Z,99959.48
2018-12-06T21:53:26.047Z,99952.67
2018-12-06T21:55:55.082Z,99949.36
2018-12-06T21:58:24.190Z,99948.15
2018-12-06T22:00:53.188Z,99957.02
2018-12-06T22:03:22.187Z,99961.11
2018-12-06T22:05:51.231Z,99966.86
2018-12-06T22:08:20.259Z,99953.19
2018-12-06T22:10:49.271Z,99959.59
2018-12-06T22:13:18.418Z,99957.22
2018-12-06T22:15:47.660Z,99960.77
2018-12-06T22:18:16.707Z,99957.16
2018-12-06T22:20:45.797Z,99949.34
2018-12-06T22:23:14.876Z,99949.34
2018-12-06T22:25:43.869Z,99939.28
2018-12-06T22:28:12.953Z,99940.84
2018-12-06T22:30:47.410Z,99943.91
2018-12-06T22:33:17.108Z,99943.40
2018-12-06T22:35:47.092Z,99953.34
2018-12-06T22:38:17.051Z,99955.84
2018-12-06T22:40:46.248Z,99950.39
2018-12-06T22:43:15.450Z,99960.80
2018-12-06T22:46:03.100Z,99954.84
2018-12-06T22:48:32.119Z,99961.70
2018-12-06T22:51:01.331Z,99954.51
2018-12-06T22:53:30.537Z,99945.94
2018-12-06T22:55:59.652Z,99947.66
2018-12-06T22:58:28.935Z,99949.09
2018-12-06T23:00:59.648Z,99942.53
2018-12-06T23:03:28.957Z,99942.63
2018-12-06T23:05:58.169Z,99935.42
2018-12-06T23:08:27.284Z,99940.73
2018-12-06T23:10:56.362Z,99933.16
2018-12-06T23:13:25.504Z,99930.66
2018-12-06T23:15:54.606Z,99932.72
2018-12-06T23:18:23.646Z,99929.82
2018-12-06T23:20:52.834Z,99929.38
2018-12-06T23:23:22.026Z,99922.39
2018-12-06T23:25:51.043Z,99919.21
2018-12-06T23:28:20.144Z,99922.84
2018-12-06T23:30:49.366Z,99919.08
2018-12-06T23:33:18.509Z,99915.33
2018-12-06T23:35:47.590Z,99919.42
2018-12-06T23:38:16.679Z,99908.13
2018-12-06T23:40:45.836Z,99911.08
2018-12-06T23:43:17.437Z,99910.86
2018-12-06T23:45:46.674Z,99913.75
2018-12-06T23:48:15.863Z,99908.55
2018-12-06T23:50:44.982Z,99909.56
2018-12-06T23:53:14.179Z,99909.48
2018-12-06T23:55:43.345Z,99912.73
2018-12-06T23:58:12.532Z,99911.41
